Airfield :
LOGIN :

Register | Disclaimer

   EN    FR    IT 

 










Legend :    VFR   Marginal VFR   IFR   Intensive IFR   Very Intensive IFR
Visi :
Ceiling :
>= 8 km
>= 3000ft
5 to 8 km
1000 to 3000 ft
1500m to 5 km
500 to 1000 ft
800 to 1500m
200 to 500 ft
< 800m
< 200 ft
Symbols :   Thunderstorms  Fog  Heavy snow  Heavy precipitations  Wind > 20 kt
SIGMETs :     Misc.  Thunderstorms  Icing  Turbulence  Mountain Waves  Volcanic Ashes







- Airport Elevation : 400 ft
- IATA code : BNX


LQBK - Banja Luka

CURRENT METAR :
  • 241000Z 36004KT 9999 BKN047 14/11 Q1021 NOSIG

EXPIRED METARs :
  • 240930Z 35004KT 9999 BKN047 14/11 Q1021 NOSIG
  • 240900Z 36006KT 9999 BKN043 13/11 Q1021 NOSIG
  • 240830Z 36006KT 9999 BKN040 14/12 Q1021 NOSIG
  • 240800Z 33004KT 9999 BKN043 14/11 Q1020 NOSIG
  • 240730Z 33002KT 7000 -RA SCT043 14/12 Q1020 NOSIG

TAF TAF LQBK
Valid from the 24 at 06:00 until the 25 at 06:00 UTC


240500Z 2406/2506 06006KT 9999 SCT040 TX17/2413Z TN12/2505Z
TEMPO 2406/2420 5000 RA
PROB30
TEMPO 2406/2416 4000 TSRA FEW030CB SCT040
TEMPO 2420/2506 3000 RA BR BKN015 OVC030
No reported NOTAMs for that airfield.



MET'MAP, your aeronautical weather chart ! - Copyright ORBIFLY December 2007 - Disclaimer

ORBIFLY MET'MAP TEAM :

Programming & Development : Alexandra Zaïnal
Concept & Development : Baudouin d'Aumeries
Co-Development & Prog : Marc-Olivier Méhu
Technical & hardware support : Manuel Goepfert

Contact : metmap@orbifly.com




SOURCES & CREDITS :

   NOAA